createdAt,value
2018-03-02T00:01:32.968Z,19.98
2018-03-02T00:04:01.364Z,54.63
2018-03-02T00:06:29.697Z,43.97
2018-03-02T00:08:59.905Z,58.75
2018-03-02T00:11:28.977Z,53.15
2018-03-02T00:13:57.772Z,60.28
2018-03-02T00:16:26.181Z,41.15
2018-03-02T00:18:54.512Z,56.42
2018-03-02T00:21:23.976Z,43.03
2018-03-02T00:23:52.926Z,44.72
2018-03-02T00:26:22.125Z,69.30
2018-03-02T00:28:51.284Z,66.03
2018-03-02T00:31:19.650Z,55.28
2018-03-02T00:33:48.008Z,26.62
2018-03-02T00:36:17.604Z,53.22
2018-03-02T00:38:46.504Z,75.68
2018-03-02T00:41:14.872Z,72.82
2018-03-02T00:43:44.099Z,36.65
2018-03-02T00:46:12.445Z,56.95
2018-03-02T00:48:40.769Z,42.62
2018-03-02T00:51:09.153Z,53.47
2018-03-02T00:53:37.465Z,46.95
2018-03-02T00:56:05.788Z,63.42
2018-03-02T00:58:34.622Z,56.92
2018-03-02T01:01:03.198Z,61.50
2018-03-02T01:03:31.789Z,47.35
2018-03-02T01:06:00.843Z,63.63
2018-03-02T01:08:29.365Z,65.90
2018-03-02T01:10:57.828Z,59.65
2018-03-02T01:13:26.180Z,65.50
2018-03-02T01:15:54.572Z,59.90
2018-03-02T01:18:23.445Z,73.43
2018-03-02T01:20:53.211Z,62.45
2018-03-02T01:23:21.576Z,69.87
2018-03-02T01:25:50.484Z,58.28
2018-03-02T01:28:19.263Z,52.35
2018-03-02T01:30:47.960Z,38.08
2018-03-02T01:33:17.042Z,53.20
2018-03-02T01:35:45.682Z,64.07
2018-03-02T01:38:15.110Z,35.67
2018-03-02T01:40:44.381Z,50.45
2018-03-02T01:43:12.787Z,46.60
2018-03-02T01:45:41.108Z,60.80
2018-03-02T01:48:09.932Z,55.35
2018-03-02T01:50:38.462Z,70.87
2018-03-02T01:53:06.800Z,64.68
2018-03-02T01:55:35.145Z,60.58
2018-03-02T01:58:03.461Z,58.95
2018-03-02T02:00:31.851Z,66.62
2018-03-02T02:03:00.163Z,45.92
2018-03-02T02:05:28.480Z,40.65
2018-03-02T02:07:58.602Z,31.92
2018-03-02T02:10:26.957Z,38.17
2018-03-02T02:12:55.272Z,56.70
2018-03-02T02:15:23.659Z,64.45
2018-03-02T02:17:52.582Z,57.78
2018-03-02T02:20:21.674Z,30.25
2018-03-02T02:22:50.670Z,65.53
2018-03-02T02:25:19.317Z,19.27
2018-03-02T02:27:48.528Z,64.85
2018-03-02T02:30:16.880Z,48.78
2018-03-02T02:32:46.059Z,42.03
2018-03-02T02:35:14.629Z,73.82
2018-03-02T02:37:43.781Z,36.70
2018-03-02T02:40:12.684Z,35.70
2018-03-02T02:42:41.793Z,50.05
2018-03-02T02:45:10.584Z,56.42
2018-03-02T02:47:40.020Z,58.85
2018-03-02T02:50:08.398Z,26.65
2018-03-02T02:52:36.728Z,54.35
2018-03-02T02:55:05.189Z,46.30
2018-03-02T02:57:33.937Z,36.13
2018-03-02T03:00:02.348Z,40.35
2018-03-02T03:02:30.936Z,31.73
2018-03-02T03:04:59.537Z,50.70
2018-03-02T03:07:27.892Z,65.00
2018-03-02T03:09:56.832Z,42.90
2018-03-02T03:12:26.040Z,28.95
2018-03-02T03:14:54.552Z,54.85
2018-03-02T03:17:23.314Z,27.60
2018-03-02T03:19:52.266Z,48.58
2018-03-02T03:22:21.691Z,59.33
2018-03-02T03:24:50.156Z,49.78
2018-03-02T03:27:18.541Z,63.70
2018-03-02T03:29:48.410Z,58.70
2018-03-02T03:32:17.105Z,67.87
2018-03-02T03:34:46.557Z,49.90
2018-03-02T03:37:16.474Z,55.25
2018-03-02T03:39:45.300Z,62.13
2018-03-02T03:42:13.646Z,41.70
2018-03-02T03:44:41.969Z,44.75
2018-03-02T03:47:11.083Z,41.78
2018-03-02T03:49:39.494Z,42.85
2018-03-02T03:52:08.144Z,49.75
2018-03-02T03:54:36.496Z,65.75
2018-03-02T03:57:05.600Z,60.80
2018-03-02T03:59:35.422Z,67.97
2018-03-02T04:02:04.060Z,61.55
2018-03-02T04:04:32.371Z,68.35
2018-03-02T04:07:00.729Z,38.45
2018-03-02T04:09:30.024Z,31.77
2018-03-02T04:11:58.889Z,52.35
2018-03-02T04:14:27.243Z,52.92
2018-03-02T04:16:55.756Z,69.57
2018-03-02T04:19:24.984Z,47.22
2018-03-02T04:21:54.517Z,57.47
2018-03-02T04:24:23.503Z,61.80
2018-03-02T04:26:52.200Z,50.67
2018-03-02T04:29:20.762Z,35.97
2018-03-02T04:31:50.072Z,36.42
2018-03-02T04:34:19.028Z,50.78
2018-03-02T04:36:47.757Z,51.83
2018-03-02T04:39:16.412Z,57.72
2018-03-02T04:41:45.379Z,26.67
2018-03-02T04:44:14.621Z,68.47
2018-03-02T04:46:43.773Z,65.68
2018-03-02T04:49:13.024Z,29.05
2018-03-02T04:51:41.346Z,64.95
2018-03-02T04:54:09.664Z,37.08
2018-03-02T04:56:38.016Z,53.70
2018-03-02T04:59:07.084Z,35.38
2018-03-02T05:01:35.404Z,39.00
2018-03-02T05:04:03.784Z,60.20
2018-03-02T05:06:32.539Z,40.15
2018-03-02T05:09:00.868Z,74.78
2018-03-02T05:11:29.232Z,41.30
2018-03-02T05:13:57.560Z,57.70
2018-03-02T05:16:25.881Z,64.97
2018-03-02T05:18:54.314Z,57.83
2018-03-02T05:21:22.633Z,60.67
2018-03-02T05:23:50.958Z,65.68
2018-03-02T05:26:19.620Z,61.28
2018-03-02T05:28:47.950Z,47.03
2018-03-02T05:31:16.293Z,66.55
2018-03-02T05:33:45.264Z,39.47
2018-03-02T05:36:13.599Z,38.95
2018-03-02T05:38:41.917Z,35.70
2018-03-02T05:41:10.284Z,64.43
2018-03-02T05:43:38.614Z,61.33
2018-03-02T05:46:09.197Z,46.63
2018-03-02T05:48:37.504Z,64.05
2018-03-02T05:51:05.832Z,40.72
2018-03-02T05:53:34.372Z,68.18
2018-03-02T05:56:02.696Z,54.53
2018-03-02T05:58:31.060Z,76.22
2018-03-02T06:00:59.478Z,39.42
2018-03-02T06:03:27.796Z,55.47
2018-03-02T06:05:56.148Z,45.40
2018-03-02T06:08:24.473Z,44.63
2018-03-02T06:10:52.795Z,61.78
2018-03-02T06:13:21.156Z,56.45
2018-03-02T06:15:49.481Z,52.03
2018-03-02T06:18:17.796Z,53.15
2018-03-02T06:20:46.160Z,68.00
2018-03-02T06:23:14.479Z,64.28
2018-03-02T06:25:43.349Z,48.58
2018-03-02T06:28:11.883Z,40.17
2018-03-02T06:30:40.430Z,46.28
2018-03-02T06:33:08.753Z,46.17
2018-03-02T06:35:37.404Z,47.03
2018-03-02T06:38:07.003Z,47.42
2018-03-02T06:40:35.448Z,68.65
2018-03-02T06:43:03.769Z,42.47
2018-03-02T06:45:32.113Z,33.72
2018-03-02T06:48:00.974Z,58.17
2018-03-02T06:50:29.320Z,37.58
2018-03-02T06:53:08.856Z,40.60
2018-03-02T06:55:37.752Z,61.75
2018-03-02T06:58:06.140Z,66.18
2018-03-02T07:00:35.428Z,51.67
2018-03-02T07:03:05.168Z,61.35
2018-03-02T07:05:34.489Z,56.58
2018-03-02T07:08:02.841Z,49.63
2018-03-02T07:10:31.935Z,48.70
2018-03-02T07:13:01.116Z,80.70
2018-03-02T07:15:29.649Z,67.00
2018-03-02T07:17:58.016Z,43.40
2018-03-02T07:20:26.357Z,65.90
2018-03-02T07:22:54.681Z,60.55
2018-03-02T07:25:23.065Z,64.90
2018-03-02T07:27:51.497Z,52.65
2018-03-02T07:30:19.824Z,54.70
2018-03-02T07:32:48.188Z,62.05
2018-03-02T07:35:16.533Z,54.38
2018-03-02T07:37:45.508Z,61.42
2018-03-02T07:40:13.837Z,83.00
2018-03-02T07:42:42.156Z,59.08
2018-03-02T07:45:11.163Z,40.33
2018-03-02T07:47:39.485Z,69.10
2018-03-02T07:50:07.804Z,61.22
2018-03-02T07:52:36.151Z,60.67
2018-03-02T07:55:04.524Z,44.00
2018-03-02T07:57:32.836Z,52.40
2018-03-02T08:00:01.751Z,55.72
2018-03-02T08:02:30.132Z,58.05
2018-03-02T08:04:58.457Z,28.40
2018-03-02T08:07:26.778Z,39.75
2018-03-02T08:09:55.152Z,49.40
2018-03-02T08:12:24.471Z,43.90
2018-03-02T08:14:52.785Z,51.35
2018-03-02T08:17:21.205Z,57.50
2018-03-02T08:19:49.528Z,54.22
2018-03-02T08:22:17.848Z,56.05
2018-03-02T08:24:46.523Z,47.35
2018-03-02T08:27:14.844Z,32.67
2018-03-02T08:29:43.924Z,72.60
2018-03-02T08:32:13.465Z,57.15
2018-03-02T08:34:41.795Z,43.38
2018-03-02T08:37:10.313Z,65.28
2018-03-02T08:39:38.870Z,71.30
2018-03-02T08:42:07.485Z,68.03
2018-03-02T08:44:35.812Z,59.15
2018-03-02T08:47:04.188Z,54.28
2018-03-02T08:49:32.521Z,63.47
2018-03-02T08:52:00.843Z,56.20
2018-03-02T08:54:29.660Z,48.85
2018-03-02T08:56:57.980Z,38.80
2018-03-02T08:59:26.304Z,56.10
2018-03-02T09:01:54.686Z,52.13
2018-03-02T09:04:23.007Z,46.70
2018-03-02T09:06:51.340Z,32.67
2018-03-02T09:09:19.727Z,79.40
2018-03-02T09:11:48.058Z,58.38
2018-03-02T09:14:16.376Z,51.35
2018-03-02T09:16:45.040Z,59.13
2018-03-02T09:19:13.360Z,42.70
2018-03-02T09:21:41.690Z,68.20
2018-03-02T09:24:10.088Z,65.62
2018-03-02T09:26:38.407Z,73.60
2018-03-02T09:29:06.717Z,64.27
2018-03-02T09:31:35.076Z,42.43
2018-03-02T09:34:03.720Z,36.83
2018-03-02T09:36:32.064Z,59.60
2018-03-02T09:39:00.608Z,47.22
2018-03-02T09:41:29.380Z,67.80
2018-03-02T09:43:57.748Z,29.07
2018-03-02T09:46:26.056Z,60.17
2018-03-02T09:48:54.429Z,54.07
2018-03-02T09:51:23.558Z,43.73
2018-03-02T09:53:51.873Z,54.63
2018-03-02T09:56:20.248Z,60.60
2018-03-02T09:58:48.556Z,57.83
2018-03-02T10:01:16.865Z,56.23
2018-03-02T10:03:45.713Z,48.20
2018-03-02T10:06:14.076Z,52.90
2018-03-02T10:08:42.680Z,57.83
2018-03-02T10:11:10.999Z,55.57
2018-03-02T10:13:39.552Z,57.30
2018-03-02T10:16:08.099Z,43.60
2018-03-02T10:18:36.768Z,52.00
2018-03-02T10:21:05.128Z,46.27
2018-03-02T10:23:33.544Z,48.97
2018-03-02T10:26:01.849Z,58.17
2018-03-02T10:28:30.925Z,60.90
2018-03-02T10:30:59.280Z,68.57
2018-03-02T10:33:27.694Z,43.70
2018-03-02T10:35:56.572Z,42.63
2018-03-02T10:38:24.884Z,73.43
2018-03-02T10:40:53.193Z,51.17
2018-03-02T10:43:21.821Z,63.60
2018-03-02T10:45:51.882Z,62.47
2018-03-02T10:48:20.452Z,39.23
2018-03-02T10:50:49.134Z,55.47
2018-03-02T10:53:17.723Z,68.80
2018-03-02T10:55:46.048Z,62.20
2018-03-02T10:58:14.872Z,58.37
2018-03-02T11:00:48.680Z,58.87
2018-03-02T11:03:22.407Z,59.77
2018-03-02T11:05:50.716Z,63.53
2018-03-02T11:08:19.030Z,61.73
2018-03-02T11:10:47.396Z,58.93
2018-03-02T11:13:16.984Z,63.00
2018-03-02T11:15:45.296Z,55.63
2018-03-02T11:18:14.376Z,64.20
2018-03-02T11:20:42.717Z,56.27
2018-03-02T11:23:11.034Z,57.83
2018-03-02T11:25:41.556Z,66.13
2018-03-02T11:28:09.913Z,63.77
2018-03-02T11:30:38.219Z,54.63
2018-03-02T11:33:06.573Z,60.20
2018-03-02T11:35:35.597Z,56.43
2018-03-02T11:38:03.922Z,56.07
2018-03-02T11:40:32.831Z,65.90
2018-03-02T11:43:02.044Z,71.20
2018-03-02T11:45:31.149Z,67.63
2018-03-02T11:48:00.956Z,64.47
2018-03-02T11:50:29.944Z,63.40
2018-03-02T11:52:59.244Z,64.47
2018-03-02T11:55:28.348Z,66.83
2018-03-02T11:57:57.219Z,66.37
2018-03-02T12:00:25.587Z,66.47
2018-03-02T12:02:54.216Z,68.63
2018-03-02T12:05:23.263Z,35.23
2018-03-02T12:07:52.333Z,63.93
2018-03-02T12:10:21.177Z,63.87
2018-03-02T12:12:49.884Z,61.50
2018-03-02T12:15:18.954Z,62.03
2018-03-02T12:17:47.256Z,65.33
2018-03-02T12:20:16.392Z,58.27
2018-03-02T12:22:44.744Z,66.70
2018-03-02T12:25:13.037Z,74.97
2018-03-02T12:27:42.673Z,62.37
2018-03-02T12:30:10.979Z,63.57
2018-03-02T12:32:39.287Z,64.60
2018-03-02T12:35:08.705Z,64.37
2018-03-02T12:37:37.009Z,62.87
2018-03-02T12:40:05.536Z,37.50
2018-03-02T12:42:34.544Z,38.03
2018-03-02T12:45:03.012Z,42.87
2018-03-02T12:47:32.118Z,67.10
2018-03-02T12:50:01.092Z,56.43
2018-03-02T12:52:29.456Z,67.03
2018-03-02T12:54:58.461Z,65.40
2018-03-02T12:57:26.776Z,71.53
2018-03-02T12:59:55.447Z,61.83
2018-03-02T13:02:23.811Z,57.90
2018-03-02T13:04:52.918Z,63.23
2018-03-02T13:07:21.234Z,70.40
2018-03-02T13:09:50.011Z,61.03
2018-03-02T13:12:18.402Z,68.40
2018-03-02T13:14:46.820Z,69.53
2018-03-02T13:17:15.250Z,69.40
2018-03-02T13:19:43.564Z,62.00
2018-03-02T13:22:30.013Z,63.90
2018-03-02T13:24:58.423Z,57.93
2018-03-02T13:27:44.661Z,65.17
2018-03-02T13:30:13.763Z,63.97
2018-03-02T13:32:44.002Z,54.33
2018-03-02T13:35:12.417Z,65.07
2018-03-02T13:37:40.932Z,68.40
2018-03-02T13:40:26.845Z,64.67
2018-03-02T13:42:55.733Z,67.07
2018-03-02T13:45:24.612Z,62.20
2018-03-02T14:01:33.776Z,66.90
2018-03-02T14:04:19.882Z,56.27
2018-03-02T14:06:48.310Z,59.63
2018-03-02T14:09:17.616Z,65.67
2018-03-02T14:11:46.488Z,71.63
2018-03-02T14:14:15.299Z,66.43
2018-03-02T14:16:43.575Z,71.10
2018-03-02T14:19:11.888Z,64.03
2018-03-02T14:21:40.705Z,69.00
2018-03-02T14:24:09.227Z,71.60
2018-03-02T14:26:38.415Z,66.17
2018-03-02T14:29:07.071Z,58.77
2018-03-02T14:31:35.941Z,61.03
2018-03-02T14:34:04.397Z,61.10
2018-03-02T14:36:32.700Z,62.60
2018-03-02T14:39:01.044Z,55.37
2018-03-02T14:41:29.352Z,67.80
2018-03-02T14:43:57.662Z,57.93
2018-03-02T14:46:26.800Z,66.47
2018-03-02T14:48:55.556Z,57.13
2018-03-02T14:51:24.952Z,66.77
2018-03-02T14:53:53.421Z,67.73
2018-03-02T14:56:21.838Z,64.17
2018-03-02T14:58:50.384Z,70.13
2018-03-02T15:01:18.724Z,67.73
2018-03-02T15:03:47.372Z,59.87
2018-03-02T15:06:21.678Z,76.43
2018-03-02T15:08:49.997Z,57.43
2018-03-02T15:11:18.352Z,57.87
2018-03-02T15:13:47.512Z,54.47
2018-03-02T15:16:15.887Z,64.00
2018-03-02T15:18:44.244Z,63.70
2018-03-02T15:21:13.036Z,61.93
2018-03-02T15:23:41.412Z,76.47
2018-03-02T15:26:09.717Z,66.50
2018-03-02T15:28:38.985Z,70.17
2018-03-02T15:31:07.872Z,63.70
2018-03-02T15:33:36.697Z,60.67
2018-03-02T15:36:05.509Z,61.07
2018-03-02T15:38:33.945Z,57.17
2018-03-02T15:41:02.926Z,67.40
2018-03-02T15:43:32.832Z,65.13
2018-03-02T15:46:01.598Z,72.30
2018-03-02T15:48:29.904Z,74.47
2018-03-02T15:50:58.266Z,63.33
2018-03-02T15:53:26.656Z,67.50
2018-03-02T15:55:54.965Z,70.40
2018-03-02T15:58:23.316Z,67.30
2018-03-02T16:00:52.222Z,62.23
2018-03-02T16:03:20.568Z,67.77
2018-03-02T16:05:48.913Z,63.47
2018-03-02T16:08:17.249Z,67.20
2018-03-02T16:10:45.567Z,63.10
2018-03-02T16:13:13.916Z,57.63
2018-03-02T16:15:42.324Z,69.50
2018-03-02T16:18:10.998Z,72.33
2018-03-02T16:20:40.651Z,72.83
2018-03-02T16:23:09.039Z,74.63
2018-03-02T16:25:38.057Z,66.17
2018-03-02T16:28:06.392Z,62.00
2018-03-02T16:30:35.008Z,70.37
2018-03-02T16:33:03.407Z,66.63
2018-03-02T16:35:31.872Z,73.43
2018-03-02T16:38:00.224Z,61.47
2018-03-02T16:40:28.581Z,73.53
2018-03-02T16:42:58.123Z,72.43
2018-03-02T16:45:27.016Z,79.63
2018-03-02T16:47:55.377Z,65.13
2018-03-02T16:50:24.315Z,68.40
2018-03-02T16:52:53.857Z,62.13
2018-03-02T16:55:22.173Z,72.23
2018-03-02T16:57:50.625Z,79.37
2018-03-02T17:00:19.791Z,76.23
2018-03-02T17:02:48.516Z,85.80
2018-03-02T17:05:17.438Z,70.53
2018-03-02T17:07:47.284Z,67.70
2018-03-02T17:10:18.032Z,75.47
2018-03-02T17:12:47.018Z,72.17
2018-03-02T17:15:15.389Z,73.30
2018-03-02T17:17:43.888Z,77.60
2018-03-02T17:20:12.700Z,70.20
2018-03-02T17:22:41.448Z,74.57
2018-03-02T17:25:10.491Z,69.40
2018-03-02T17:27:39.060Z,76.17
2018-03-02T17:30:07.440Z,71.93
2018-03-02T17:32:36.021Z,66.43
2018-03-02T17:35:05.581Z,68.67
2018-03-02T17:37:34.028Z,69.37
2018-03-02T17:40:02.377Z,65.93
2018-03-02T17:42:31.245Z,73.93
2018-03-02T17:44:59.693Z,69.67
2018-03-02T17:47:28.011Z,80.30
2018-03-02T17:49:56.335Z,89.07
2018-03-02T17:52:24.676Z,83.50
2018-03-02T17:54:52.983Z,77.27
2018-03-02T17:57:21.984Z,84.73
2018-03-02T17:59:51.207Z,74.83
2018-03-02T18:02:19.540Z,70.67
2018-03-02T18:04:48.247Z,84.80
2018-03-02T18:07:16.945Z,79.20
2018-03-02T18:09:45.328Z,76.77
2018-03-02T18:12:14.169Z,92.60
2018-03-02T18:14:43.113Z,90.93
2018-03-02T18:17:11.509Z,99.27
2018-03-02T18:19:40.430Z,93.00
2018-03-02T18:22:08.832Z,106.57
2018-03-02T18:24:37.199Z,103.50
2018-03-02T18:27:06.277Z,91.07
2018-03-02T18:29:34.597Z,107.50
2018-03-02T18:32:03.644Z,98.77
2018-03-02T18:34:31.993Z,100.00
2018-03-02T18:37:00.308Z,93.47
2018-03-02T18:39:30.013Z,110.77
2018-03-02T18:42:00.003Z,108.73
2018-03-02T18:44:29.021Z,105.03
2018-03-02T18:46:57.552Z,108.60
2018-03-02T18:49:25.892Z,87.70
2018-03-02T18:51:55.465Z,126.47
2018-03-02T18:54:24.579Z,96.87
2018-03-02T18:56:53.685Z,96.47
2018-03-02T18:59:22.764Z,109.60
2018-03-02T19:01:51.085Z,90.47
2018-03-02T19:04:20.140Z,112.03
2018-03-02T19:06:48.624Z,118.33
2018-03-02T19:09:17.540Z,113.23
2018-03-02T19:11:45.931Z,117.37
2018-03-02T19:14:14.464Z,124.07
2018-03-02T19:16:42.848Z,110.80
2018-03-02T19:19:11.656Z,111.67
2018-03-02T19:21:40.028Z,123.00
2018-03-02T19:24:08.700Z,111.30
2018-03-02T19:26:37.015Z,107.70
2018-03-02T19:29:05.376Z,99.37
2018-03-02T19:31:33.748Z,116.90
2018-03-02T19:34:02.057Z,105.50
2018-03-02T19:36:30.396Z,113.20
2018-03-02T19:38:59.280Z,109.80
2018-03-02T19:41:28.492Z,96.17
2018-03-02T19:43:57.616Z,108.63
2018-03-02T19:46:26.188Z,115.63
2018-03-02T19:48:57.343Z,118.30
2018-03-02T19:51:25.704Z,122.87
2018-03-02T19:53:55.205Z,131.00
2018-03-02T19:56:24.672Z,126.40
2018-03-02T19:58:53.057Z,106.67
2018-03-02T20:01:22.004Z,122.93
2018-03-02T20:03:50.596Z,132.43
2018-03-02T20:06:19.171Z,129.87
2018-03-02T20:08:47.868Z,126.43
2018-03-02T20:11:16.747Z,120.47
2018-03-02T20:13:45.280Z,135.90
2018-03-02T20:16:13.603Z,136.10
2018-03-02T20:18:42.471Z,138.63
2018-03-02T20:21:10.864Z,130.37
2018-03-02T20:23:39.989Z,139.30
2018-03-02T20:26:08.360Z,126.33
2018-03-02T20:28:37.898Z,147.10
2018-03-02T20:31:07.043Z,144.47
2018-03-02T20:33:35.402Z,129.53
2018-03-02T20:36:03.779Z,132.93
2018-03-02T20:38:32.750Z,134.67
2018-03-02T20:41:01.213Z,143.00
2018-03-02T20:43:30.152Z,141.35
2018-03-02T20:45:58.572Z,120.00
2018-03-02T20:48:28.282Z,136.07
2018-03-02T20:50:56.724Z,115.47
2018-03-02T20:53:25.436Z,136.15
2018-03-02T20:55:53.883Z,140.55
2018-03-02T20:58:22.280Z,142.15
2018-03-02T21:00:51.608Z,137.00
2018-03-02T21:03:20.009Z,126.13
2018-03-02T21:05:48.433Z,125.27
2018-03-02T21:08:18.324Z,147.50
2018-03-02T21:10:47.137Z,137.70
2018-03-02T21:13:17.056Z,138.53
2018-03-02T21:15:45.672Z,145.07
2018-03-02T21:18:15.244Z,156.47
2018-03-02T21:20:44.355Z,149.07
2018-03-02T21:23:14.948Z,147.70
2018-03-02T21:25:43.298Z,149.93
2018-03-02T21:28:11.740Z,151.73
2018-03-02T21:30:40.613Z,170.12
2018-03-02T21:33:09.142Z,157.77
2018-03-02T21:35:38.228Z,169.77
2018-03-02T21:38:06.585Z,155.97
2018-03-02T21:40:34.907Z,153.03
2018-03-02T21:43:04.438Z,139.67
2018-03-02T21:45:32.904Z,146.27
2018-03-02T21:48:01.242Z,156.77
2018-03-02T21:50:29.621Z,175.02
2018-03-02T21:52:57.952Z,154.50
2018-03-02T21:55:26.323Z,148.70
2018-03-02T21:57:55.202Z,147.25
2018-03-02T22:00:23.673Z,166.63
2018-03-02T22:02:52.576Z,159.53
2018-03-02T22:05:20.912Z,151.87
2018-03-02T22:07:49.297Z,164.07
2018-03-02T22:10:17.752Z,164.93
2018-03-02T22:12:46.842Z,152.05
2018-03-02T22:15:15.213Z,161.27
2018-03-02T22:17:43.829Z,138.57
2018-03-02T22:20:12.196Z,162.50
2018-03-02T22:22:41.127Z,170.07
2018-03-02T22:25:09.516Z,139.30
2018-03-02T22:27:37.857Z,158.30
2018-03-02T22:30:06.188Z,161.60
2018-03-02T22:32:34.999Z,169.93
2018-03-02T22:35:03.329Z,167.17
2018-03-02T22:37:31.657Z,155.45
2018-03-02T22:40:00.057Z,169.63
2018-03-02T22:42:28.385Z,162.40
2018-03-02T22:44:56.712Z,154.10
2018-03-02T22:47:26.336Z,160.27
2018-03-02T22:49:54.736Z,163.00
2018-03-02T22:52:24.502Z,177.07
2018-03-02T22:54:52.931Z,180.18
2018-03-02T22:57:21.976Z,154.12
2018-03-02T22:59:50.960Z,164.40
2018-03-02T23:02:19.555Z,174.73
2018-03-02T23:04:48.721Z,157.23
2018-03-02T23:07:17.284Z,159.13
2018-03-02T23:09:46.318Z,160.47
2018-03-02T23:12:14.663Z,160.10
2018-03-02T23:14:48.723Z,164.30
2018-03-02T23:17:17.264Z,175.23
2018-03-02T23:19:46.069Z,165.90
2018-03-02T23:22:15.109Z,171.50
2018-03-02T23:24:43.447Z,187.80
2018-03-02T23:27:12.225Z,162.77
2018-03-02T23:29:40.632Z,167.57
2018-03-02T23:32:09.200Z,167.93
2018-03-02T23:34:39.820Z,185.27
2018-03-02T23:37:09.613Z,176.10
2018-03-02T23:39:39.672Z,191.13
2018-03-02T23:42:09.823Z,175.12
2018-03-02T23:44:39.448Z,157.37
2018-03-02T23:47:09.292Z,174.90
2018-03-02T23:49:39.153Z,156.03
2018-03-02T23:52:07.596Z,182.90
2018-03-02T23:54:36.000Z,183.07
2018-03-02T23:57:04.329Z,173.33
2018-03-02T23:59:32.692Z,181.57
